Wetterdaten: Woche 22.08.11 - 28.08.11 (KW34)
Datum Zeit Temp. A. Feuchte A. Luftdruck Regen Wind Richtung Taupunkt Windchill Windben
22.08.2011 00:00 20,7 C 80 % 1017,4 hPa 0,0 l/m 0,0 km/h N 17,1 C 20,7 C 0,0 km/h
22.08.2011 01:00 19,9 C 81 % 1017,0 hPa 0,0 l/m 0,0 km/h N 16,5 C 19,9 C 0,0 km/h
22.08.2011 02:00 19,2 C 81 % 1016,6 hPa 0,0 l/m 0,0 km/h N 15,9 C 19,2 C 0,0 km/h
22.08.2011 03:00 18,7 C 81 % 1016,3 hPa 0,0 l/m 0,0 km/h N 15,4 C 18,7 C 0,0 km/h
22.08.2011 04:00 18,1 C 81 % 1016,5 hPa 0,0 l/m 0,0 km/h N 14,8 C 18,1 C 0,0 km/h
22.08.2011 05:00 17,8 C 80 % 1016,5 hPa 0,0 l/m 0,0 km/h N 14,3 C 17,8 C 0,0 km/h
22.08.2011 06:00 17,6 C 80 % 1017,0 hPa 0,0 l/m 0,0 km/h N 14,1 C 17,6 C 0,0 km/h
22.08.2011 07:00 18,3 C 79 % 1017,1 hPa 0,0 l/m 0,0 km/h N 14,5 C 18,3 C 0,0 km/h
22.08.2011 08:00 19,7 C 76 % 1017,3 hPa 0,0 l/m 0,0 km/h N 15,4 C 19,7 C 0,8 km/h
22.08.2011 09:00 21,0 C 76 % 1017,2 hPa 0,0 l/m 0,1 km/h N 16,6 C 21,0 C 1,6 km/h
22.08.2011 10:00 23,8 C 78 % 1017,2 hPa 0,0 l/m 0,0 km/h N 19,7 C 23,8 C 1,6 km/h
22.08.2011 11:00 29,0 C 64 % 1017,1 hPa 0,0 l/m 0,1 km/h N 21,3 C 29,0 C 2,8 km/h
22.08.2011 12:00 32,7 C 52 % 1016,7 hPa 0,0 l/m 0,2 km/h N 21,5 C 32,7 C 2,4 km/h
22.08.2011 13:00 34,4 C 49 % 1016,3 hPa 0,0 l/m 0,4 km/h N 22,0 C 34,4 C 4,0 km/h
22.08.2011 14:00 36,5 C 43 % 1015,8 hPa 0,0 l/m 0,1 km/h N 21,9 C 36,5 C 2,4 km/h
22.08.2011 15:00 34,8 C 46 % 1015,5 hPa 0,0 l/m 0,4 km/h N 21,4 C 34,8 C 5,2 km/h
22.08.2011 16:00 33,3 C 49 % 1015,3 hPa 0,0 l/m 1,1 km/h S 21,0 C 33,3 C 7,2 km/h
22.08.2011 17:00 33,3 C 48 % 1015,1 hPa 0,0 l/m 2,6 km/h S-SO 20,6 C 33,3 C 10,1 km/h
22.08.2011 18:00 32,7 C 49 % 1015,2 hPa 0,0 l/m 1,3 km/h S 20,6 C 32,7 C 6,8 km/h
22.08.2011 19:00 31,5 C 56 % 1015,4 hPa 0,0 l/m 0,3 km/h N 21,7 C 31,5 C 2,4 km/h
22.08.2011 20:00 28,7 C 66 % 1015,8 hPa 0,0 l/m 0,0 km/h N 21,5 C 28,7 C 1,2 km/h
22.08.2011 21:00 26,2 C 72 % 1016,1 hPa 0,0 l/m 0,0 km/h N 20,7 C 26,2 C 0,4 km/h
22.08.2011 22:00 24,6 C 78 % 1016,2 hPa 0,0 l/m 0,0 km/h N 20,4 C 24,6 C 0,4 km/h
22.08.2011 23:00 23,4 C 80 % 1015,9 hPa 0,0 l/m 0,0 km/h N 19,8 C 23,4 C 0,0 km/h
23.08.2011 00:00 22,6 C 80 % 1015,7 hPa 0,0 l/m 0,0 km/h N 19,0 C 22,6 C 0,0 km/h
23.08.2011 01:00 22,0 C 80 % 1015,6 hPa 0,0 l/m 0,0 km/h N 18,4 C 22,0 C 0,0 km/h
23.08.2011 02:00 21,6 C 80 % 1015,5 hPa 0,0 l/m 0,0 km/h N 18,0 C 21,6 C 0,0 km/h
23.08.2011 03:00 21,1 C 80 % 1015,3 hPa 0,0 l/m 0,0 km/h N 17,5 C 21,1 C 0,0 km/h
23.08.2011 04:00 20,6 C 80 % 1015,5 hPa 0,0 l/m 0,0 km/h N 17,0 C 20,6 C 0,0 km/h
23.08.2011 05:00 20,2 C 79 % 1015,6 hPa 0,0 l/m 0,0 km/h N 16,5 C 20,2 C 0,0 km/h
23.08.2011 06:00 19,9 C 79 % 1015,7 hPa 0,0 l/m 0,0 km/h N 16,1 C 19,9 C 0,0 km/h
23.08.2011 07:00 21,0 C 76 % 1015,9 hPa 0,0 l/m 0,0 km/h N 16,7 C 21,0 C 0,4 km/h
23.08.2011 08:00 22,0 C 75 % 1016,0 hPa 0,0 l/m 0,0 km/h N 17,4 C 22,0 C 1,6 km/h
23.08.2011 09:00 23,0 C 76 % 1015,8 hPa 0,0 l/m 0,1 km/h N 18,4 C 23,0 C 1,6 km/h
23.08.2011 10:00 24,3 C 79 % 1015,7 hPa 0,0 l/m 0,1 km/h N 20,3 C 24,3 C 1,6 km/h
23.08.2011 11:00 27,4 C 77 % 1015,4 hPa 0,0 l/m 0,1 km/h N 22,9 C 27,4 C 2,4 km/h
23.08.2011 12:00 30,5 C 68 % 1014,8 hPa 0,0 l/m 0,5 km/h N 23,8 C 30,5 C 4,0 km/h
23.08.2011 13:00 32,1 C 65 % 1013,7 hPa 0,0 l/m 0,3 km/h N 24,5 C 32,1 C 3,6 km/h
23.08.2011 14:00 34,0 C 52 % 1012,9 hPa 0,0 l/m 1,5 km/h S 22,7 C 34,0 C 10,1 km/h
23.08.2011 15:00 35,4 C 48 % 1012,2 hPa 0,0 l/m 1,3 km/h O-SO 22,6 C 35,4 C 8,1 km/h
23.08.2011 16:00 35,9 C 44 % 1011,9 hPa 0,0 l/m 2,2 km/h O-SO 21,7 C 35,9 C 16,1 km/h
23.08.2011 17:00 35,6 C 43 % 1011,9 hPa 0,0 l/m 3,1 km/h S 21,0 C 35,6 C 14,1 km/h
23.08.2011 18:00 34,4 C 45 % 1011,7 hPa 0,0 l/m 2,5 km/h S 20,5 C 34,4 C 14,1 km/h
23.08.2011 19:00 32,5 C 52 % 1011,7 hPa 0,0 l/m 3,6 km/h SW 21,4 C 32,5 C 16,1 km/h
23.08.2011 20:00 30,2 C 63 % 1012,1 hPa 0,0 l/m 0,0 km/h N 22,2 C 30,2 C 1,2 km/h
23.08.2011 21:00 28,4 C 65 % 1012,6 hPa 0,0 l/m 1,0 km/h W-SW 21,0 C 28,4 C 8,4 km/h
23.08.2011 22:00 27,5 C 65 % 1012,9 hPa 0,0 l/m 0,0 km/h N 20,4 C 27,5 C 0,8 km/h
23.08.2011 23:00 26,6 C 67 % 1012,9 hPa 0,0 l/m 0,1 km/h N 20,0 C 26,6 C 2,0 km/h
24.08.2011 00:00 26,2 C 67 % 1012,9 hPa 0,0 l/m 0,0 km/h N 19,5 C 26,2 C 1,2 km/h
24.08.2011 01:00 25,6 C 68 % 1012,9 hPa 0,0 l/m 0,2 km/h N 19,2 C 25,6 C 3,6 km/h
24.08.2011 02:00 23,9 C 74 % 1012,9 hPa 0,0 l/m 0,0 km/h N 18,8 C 23,9 C 0,8 km/h
24.08.2011 03:00 22,1 C 78 % 1013,1 hPa 0,0 l/m 0,0 km/h N 18,1 C 22,1 C 0,0 km/h
24.08.2011 04:00 21,0 C 80 % 1012,9 hPa 0,0 l/m 0,0 km/h N 17,4 C 21,0 C 0,4 km/h
24.08.2011 05:00 20,4 C 81 % 1012,8 hPa 0,0 l/m 0,0 km/h N 17,0 C 20,4 C 0,0 km/h
24.08.2011 06:00 19,7 C 81 % 1013,3 hPa 0,0 l/m 0,0 km/h N 16,4 C 19,7 C 0,0 km/h
24.08.2011 07:00 20,0 C 80 % 1013,5 hPa 0,0 l/m 0,0 km/h N 16,4 C 20,0 C 0,4 km/h
24.08.2011 08:00 21,3 C 80 % 1013,8 hPa 0,0 l/m 0,0 km/h N 17,6 C 21,3 C 0,4 km/h
24.08.2011 09:00 23,4 C 80 % 1014,0 hPa 0,0 l/m 0,8 km/h N-NO 19,8 C 23,4 C 3,6 km/h
24.08.2011 10:00 26,1 C 75 % 1014,0 hPa 0,0 l/m 2,4 km/h N-NO 21,3 C 26,1 C 7,2 km/h
24.08.2011 11:00 28,9 C 65 % 1013,8 hPa 0,0 l/m 3,8 km/h N-NW 21,6 C 28,9 C 8,9 km/h
24.08.2011 12:00 30,8 C 58 % 1013,5 hPa 0,0 l/m 3,2 km/h O 21,6 C 30,8 C 8,9 km/h
24.08.2011 13:00 31,6 C 57 % 1013,3 hPa 0,0 l/m 1,7 km/h N-NW 22,0 C 31,6 C 6,0 km/h
24.08.2011 14:00 32,0 C 57 % 1012,9 hPa 0,0 l/m 0,6 km/h S 22,4 C 32,0 C 4,8 km/h
24.08.2011 15:00 32,8 C 54 % 1012,5 hPa 0,0 l/m 0,4 km/h N 22,2 C 32,8 C 3,6 km/h
24.08.2011 16:00 33,0 C 52 % 1012,2 hPa 0,0 l/m 0,4 km/h N 21,7 C 33,0 C 4,0 km/h
24.08.2011 17:00 32,8 C 49 % 1011,8 hPa 0,0 l/m 0,2 km/h N 20,8 C 32,8 C 2,8 km/h
24.08.2011 18:00 32,1 C 51 % 1011,5 hPa 0,0 l/m 0,2 km/h N 20,6 C 32,1 C 2,4 km/h
24.08.2011 19:00 31,1 C 55 % 1011,3 hPa 0,0 l/m 0,1 km/h N 21,0 C 31,1 C 2,8 km/h
24.08.2011 20:00 28,3 C 65 % 1011,8 hPa 0,0 l/m 0,0 km/h N 21,0 C 28,3 C 0,0 km/h
24.08.2011 21:00 26,1 C 71 % 1012,3 hPa 0,0 l/m 0,0 km/h N 20,4 C 26,1 C 0,0 km/h
24.08.2011 22:00 24,3 C 77 % 1012,3 hPa 0,0 l/m 0,0 km/h N 20,0 C 24,3 C 0,0 km/h
24.08.2011 23:00 23,1 C 79 % 1011,7 hPa 0,0 l/m 0,0 km/h N 19,3 C 23,1 C 0,0 km/h
25.08.2011 00:00 22,4 C 80 % 1011,7 hPa 0,0 l/m 0,0 km/h N 18,8 C 22,4 C 0,4 km/h
25.08.2011 01:00 21,7 C 81 % 1011,8 hPa 0,0 l/m 0,0 km/h N 18,3 C 21,7 C 0,0 km/h
25.08.2011 02:00 21,1 C 81 % 1011,8 hPa 0,0 l/m 0,0 km/h N 17,7 C 21,1 C 0,0 km/h
25.08.2011 03:00 20,9 C 81 % 1012,7 hPa 0,0 l/m 0,0 km/h N 17,4 C 20,9 C 1,2 km/h
25.08.2011 04:00 22,0 C 79 % 1013,3 hPa 0,0 l/m 1,9 km/h S 18,2 C 22,0 C 11,3 km/h
25.08.2011 05:00 23,3 C 71 % 1014,4 hPa 0,0 l/m 2,9 km/h N-NW 17,6 C 23,3 C 12,5 km/h
25.08.2011 06:00 22,8 C 72 % 1014,8 hPa 0,0 l/m 1,0 km/h W 17,4 C 22,8 C 6,4 km/h
25.08.2011 07:00 22,4 C 74 % 1014,9 hPa 0,0 l/m 1,0 km/h N-NW 17,4 C 22,4 C 4,8 km/h
25.08.2011 08:00 23,0 C 73 % 1015,0 hPa 0,0 l/m 2,0 km/h S-SW 17,7 C 23,0 C 8,9 km/h
25.08.2011 09:00 24,4 C 67 % 1014,8 hPa 0,0 l/m 2,7 km/h NW 17,7 C 24,4 C 13,3 km/h
25.08.2011 10:00 25,8 C 63 % 1015,0 hPa 0,0 l/m 2,5 km/h N-NO 18,1 C 25,8 C 11,7 km/h
25.08.2011 11:00 27,9 C 55 % 1014,8 hPa 0,0 l/m 2,7 km/h N-NW 18,1 C 27,9 C 7,6 km/h
25.08.2011 12:00 29,6 C 53 % 1014,3 hPa 0,0 l/m 1,4 km/h N-NO 18,8 C 29,6 C 6,0 km/h
25.08.2011 13:00 30,0 C 51 % 1013,8 hPa 0,0 l/m 1,6 km/h N 18,8 C 30,0 C 6,0 km/h
25.08.2011 14:00 30,4 C 49 % 1013,4 hPa 0,0 l/m 0,8 km/h W 18,5 C 30,4 C 4,8 km/h
25.08.2011 15:00 31,4 C 48 % 1012,9 hPa 0,0 l/m 0,9 km/h NO 19,0 C 31,4 C 5,6 km/h
25.08.2011 16:00 31,7 C 48 % 1012,4 hPa 0,0 l/m 0,2 km/h N 19,1 C 31,7 C 2,4 km/h
25.08.2011 17:00 31,6 C 49 % 1012,0 hPa 0,0 l/m 0,2 km/h N 19,4 C 31,6 C 2,8 km/h
25.08.2011 18:00 30,9 C 54 % 1011,8 hPa 0,0 l/m 0,0 km/h N 20,3 C 30,9 C 1,6 km/h
25.08.2011 19:00 29,6 C 57 % 1011,7 hPa 0,0 l/m 0,0 km/h N 20,0 C 29,6 C 0,0 km/h
25.08.2011 20:00 27,5 C 64 % 1012,4 hPa 0,0 l/m 0,0 km/h N 19,9 C 27,5 C 1,2 km/h
25.08.2011 21:00 25,5 C 70 % 1012,9 hPa 0,0 l/m 0,0 km/h N 19,7 C 25,5 C 0,0 km/h
25.08.2011 22:00 24,1 C 74 % 1013,0 hPa 0,0 l/m 0,0 km/h N 19,2 C 24,1 C 0,4 km/h
25.08.2011 23:00 23,2 C 77 % 1012,8 hPa 0,0 l/m 0,0 km/h N 19,0 C 23,2 C 1,2 km/h
26.08.2011 00:00 22,6 C 78 % 1012,8 hPa 0,0 l/m 0,0 km/h N 18,6 C 22,6 C 0,4 km/h
26.08.2011 01:00 22,0 C 80 % 1012,7 hPa 0,0 l/m 0,0 km/h N 18,4 C 22,0 C 0,4 km/h
26.08.2011 02:00 21,4 C 81 % 1012,3 hPa 0,0 l/m 0,0 km/h N 17,9 C 21,4 C 0,4 km/h
26.08.2011 03:00 20,6 C 81 % 1012,2 hPa 0,0 l/m 0,0 km/h N 17,3 C 20,6 C 0,0 km/h
26.08.2011 04:00 20,1 C 81 % 1012,0 hPa 0,0 l/m 0,0 km/h N 16,7 C 20,1 C 0,4 km/h
26.08.2011 05:00 19,7 C 81 % 1011,9 hPa 0,0 l/m 0,0 km/h N 16,3 C 19,7 C 0,4 km/h
26.08.2011 06:00 19,1 C 81 % 1011,8 hPa 0,0 l/m 0,0 km/h N 15,7 C 19,1 C 0,8 km/h
26.08.2011 07:00 19,3 C 80 % 1011,7 hPa 0,0 l/m 0,0 km/h N 15,6 C 19,3 C 0,0 km/h
26.08.2011 08:00 20,9 C 78 % 1011,6 hPa 0,0 l/m 0,3 km/h S 16,8 C 20,9 C 3,6 km/h
26.08.2011 09:00 23,1 C 80 % 1011,6 hPa 0,0 l/m 1,3 km/h S-SW 19,5 C 23,1 C 6,8 km/h
26.08.2011 10:00 25,8 C 75 % 1011,1 hPa 0,0 l/m 1,2 km/h SO 20,8 C 25,8 C 8,4 km/h
26.08.2011 11:00 30,1 C 58 % 1010,4 hPa 0,0 l/m 2,9 km/h S 20,8 C 30,1 C 12,9 km/h
26.08.2011 12:00 32,8 C 49 % 1009,9 hPa 0,0 l/m 2,3 km/h S-SO 20,6 C 32,8 C 12,5 km/h
26.08.2011 13:00 34,0 C 39 % 1009,3 hPa 0,0 l/m 2,3 km/h O 17,8 C 34,0 C 15,7 km/h
26.08.2011 14:00 35,0 C 32 % 1008,9 hPa 0,0 l/m 2,4 km/h SO 16,0 C 35,0 C 12,9 km/h
26.08.2011 15:00 35,7 C 31 % 1008,5 hPa 0,0 l/m 4,0 km/h S 15,8 C 35,7 C 20,9 km/h
26.08.2011 16:00 35,8 C 29 % 1008,2 hPa 0,0 l/m 7,4 km/h SO 14,8 C 35,8 C 26,6 km/h
26.08.2011 17:00 35,0 C 32 % 1008,0 hPa 0,0 l/m 7,9 km/h S 15,5 C 35,0 C 25,7 km/h
26.08.2011 18:00 33,8 C 36 % 1008,0 hPa 0,0 l/m 5,4 km/h S-SO 16,7 C 33,8 C 21,7 km/h
26.08.2011 19:00 32,2 C 44 % 1008,1 hPa 0,0 l/m 2,3 km/h S 18,2 C 32,2 C 10,5 km/h
26.08.2011 20:00 30,4 C 48 % 1008,3 hPa 0,0 l/m 0,2 km/h N 18,1 C 30,4 C 4,0 km/h
26.08.2011 21:00 28,6 C 50 % 1008,6 hPa 0,0 l/m 2,7 km/h S 17,0 C 28,6 C 10,5 km/h
26.08.2011 22:00 27,9 C 51 % 1008,6 hPa 0,0 l/m 1,8 km/h S 16,8 C 27,9 C 7,6 km/h
26.08.2011 23:00 26,2 C 59 % 1008,6 hPa 0,0 l/m 0,0 km/h N 17,5 C 26,2 C 0,8 km/h
27.08.2011 00:00 24,0 C 65 % 1008,7 hPa 0,0 l/m 0,0 km/h N 17,0 C 24,0 C 1,2 km/h
27.08.2011 01:00 23,9 C 67 % 1008,4 hPa 0,0 l/m 0,0 km/h N 17,4 C 23,9 C 1,6 km/h
27.08.2011 02:00 24,2 C 68 % 1008,2 hPa 0,0 l/m 0,2 km/h N 17,8 C 24,2 C 3,2 km/h
27.08.2011 03:00 23,9 C 67 % 1008,2 hPa 0,0 l/m 0,0 km/h N 17,4 C 23,9 C 0,8 km/h
27.08.2011 04:00 23,4 C 70 % 1008,3 hPa 0,0 l/m 0,5 km/h S 17,5 C 23,4 C 6,0 km/h
27.08.2011 05:00 22,9 C 73 % 1008,2 hPa 0,0 l/m 0,4 km/h N 17,7 C 22,9 C 5,2 km/h
27.08.2011 06:00 22,3 C 77 % 1008,3 hPa 0,0 l/m 0,0 km/h N 18,1 C 22,3 C 2,0 km/h
27.08.2011 07:00 21,9 C 80 % 1008,4 hPa 0,0 l/m 0,2 km/h N 18,2 C 21,9 C 1,6 km/h
27.08.2011 08:00 22,9 C 77 % 1008,8 hPa 0,0 l/m 0,8 km/h SW 18,6 C 22,9 C 6,0 km/h
27.08.2011 09:00 24,0 C 74 % 1009,0 hPa 0,0 l/m 0,3 km/h N 19,0 C 24,0 C 3,6 km/h
27.08.2011 10:00 25,6 C 64 % 1009,3 hPa 0,0 l/m 0,7 km/h N 18,3 C 25,6 C 7,6 km/h
27.08.2011 11:00 27,3 C 60 % 1009,6 hPa 0,0 l/m 0,6 km/h N 18,7 C 27,3 C 4,4 km/h
27.08.2011 12:00 28,8 C 55 % 1009,8 hPa 0,0 l/m 1,6 km/h N 18,7 C 28,8 C 6,8 km/h
27.08.2011 13:00 27,3 C 55 % 1010,0 hPa 0,0 l/m 6,3 km/h N-NW 17,4 C 27,2 C 14,1 km/h
27.08.2011 14:00 26,3 C 53 % 1010,3 hPa 0,0 l/m 5,0 km/h NW 16,0 C 26,3 C 17,3 km/h
27.08.2011 15:00 24,0 C 53 % 1011,2 hPa 0,0 l/m 8,9 km/h W-SW 13,8 C 23,4 C 29,0 km/h
27.08.2011 16:00 21,1 C 56 % 1012,4 hPa 0,0 l/m 9,9 km/h W 12,0 C 19,9 C 33,0 km/h
27.08.2011 17:00 18,3 C 63 % 1014,0 hPa 0,0 l/m 12,6 km/h W-NW 11,1 C 15,8 C 43,9 km/h
27.08.2011 18:00 16,1 C 66 % 1015,9 hPa 0,0 l/m 11,9 km/h W-SW 9,7 C 13,6 C 40,2 km/h
27.08.2011 19:00 14,8 C 72 % 1016,6 hPa 0,0 l/m 10,6 km/h NW 9,7 C 12,6 C 37,8 km/h
27.08.2011 20:00 13,6 C 78 % 1018,4 hPa 1,0 l/m 6,0 km/h N-NO 9,8 C 12,8 C 24,1 km/h
27.08.2011 21:00 13,0 C 82 % 1019,0 hPa 3,1 l/m 2,3 km/h N-NW 9,9 C 13,0 C 10,1 km/h
27.08.2011 22:00 12,7 C 82 % 1020,3 hPa 1,0 l/m 2,3 km/h NW 9,7 C 12,7 C 9,3 km/h
27.08.2011 23:00 12,6 C 82 % 1020,4 hPa 1,8 l/m 1,9 km/h N-NW 9,6 C 12,6 C 7,2 km/h
28.08.2011 00:00 12,4 C 82 % 1020,7 hPa 1,0 l/m 2,4 km/h SW 9,3 C 12,4 C 10,1 km/h
28.08.2011 01:00 12,5 C 81 % 1020,3 hPa 0,0 l/m 1,8 km/h N-NW 9,3 C 12,5 C 6,8 km/h
28.08.2011 02:00 12,3 C 82 % 1020,7 hPa 0,0 l/m 1,5 km/h N 9,4 C 12,3 C 6,8 km/h
28.08.2011 03:00 12,2 C 82 % 1020,8 hPa 0,0 l/m 4,3 km/h N-NW 9,1 C 12,2 C 10,1 km/h
28.08.2011 04:00 12,0 C 81 % 1020,9 hPa 0,0 l/m 4,1 km/h N-NW 8,9 C 12,0 C 9,6 km/h
28.08.2011 05:00 11,8 C 81 % 1021,0 hPa 0,0 l/m 2,7 km/h N-NW 8,6 C 11,8 C 6,0 km/h
28.08.2011 06:00 12,1 C 79 % 1021,2 hPa 0,0 l/m 2,1 km/h N-NW 8,5 C 12,1 C 6,0 km/h
28.08.2011 07:00 12,7 C 78 % 1021,7 hPa 0,0 l/m 3,2 km/h N-NW 8,9 C 12,7 C 8,0 km/h
28.08.2011 08:00 13,9 C 76 % 1021,9 hPa 0,0 l/m 4,1 km/h N-NW 9,7 C 13,9 C 10,9 km/h
28.08.2011 09:00 15,6 C 71 % 1022,2 hPa 0,0 l/m 5,5 km/h N-NW 10,2 C 15,4 C 16,1 km/h
28.08.2011 10:00 17,0 C 67 % 1022,1 hPa 0,0 l/m 4,6 km/h N-NO 10,9 C 17,0 C 16,5 km/h
28.08.2011 11:00 18,6 C 62 % 1021,8 hPa 0,0 l/m 5,8 km/h N-NO 11,3 C 18,5 C 17,3 km/h
28.08.2011 12:00 20,3 C 57 % 1021,3 hPa 0,0 l/m 3,4 km/h NW 11,5 C 20,3 C 11,3 km/h
28.08.2011 13:00 21,2 C 55 % 1020,6 hPa 0,0 l/m 2,6 km/h N-NW 11,6 C 21,2 C 8,4 km/h
28.08.2011 14:00 21,7 C 54 % 1020,0 hPa 0,0 l/m 2,5 km/h N 12,0 C 21,7 C 8,5 km/h
28.08.2011 15:00 21,9 C 53 % 1019,3 hPa 0,0 l/m 2,5 km/h N-NO 11,8 C 21,9 C 8,0 km/h
28.08.2011 16:00 22,2 C 51 % 1018,7 hPa 0,0 l/m 2,1 km/h N-NO 11,6 C 22,2 C 6,4 km/h
28.08.2011 17:00 22,3 C 51 % 1018,2 hPa 0,0 l/m 0,9 km/h N-NO 11,6 C 22,3 C 5,6 km/h
28.08.2011 18:00 22,0 C 53 % 1017,7 hPa 0,0 l/m 0,4 km/h N 11,8 C 22,0 C 2,8 km/h
28.08.2011 19:00 21,0 C 57 % 1017,4 hPa 0,0 l/m 0,0 km/h N 12,1 C 21,0 C 0,8 km/h
28.08.2011 20:00 19,2 C 64 % 1017,9 hPa 0,0 l/m 0,0 km/h N 12,2 C 19,2 C 0,0 km/h
28.08.2011 21:00 17,0 C 72 % 1018,1 hPa 0,0 l/m 0,0 km/h N 12,0 C 17,0 C 0,0 km/h
28.08.2011 22:00 15,6 C 76 % 1018,2 hPa 0,0 l/m 0,0 km/h N 11,4 C 15,6 C 0,4 km/h
28.08.2011 23:00 14,8 C 78 % 1018,0 hPa 0,0 l/m 0,0 km/h N 11,0 C 14,8 C 1,6 km/h
Min-Datum _ 28.08.11 26.08.11 26.08.11 - 22.08.11 - 28.08.11 28.08.11 22.08.11
_ Min-Zeit 05:15 16:00 17:30 - 00:00 - 06:30 05:15 00:00
Minimum _ 11,8 C 28 % 1007,9 hPa - 0,0 km/h - 8,4 C 11,8 C 0,0 km/h
Max-Datum _ 22.08.11 27.08.11 28.08.11 27.08.11 27.08.11 - 23.08.11 22.08.11 27.08.11
_ Max-Zeit 15:00 21:30 09:45 21:30 17:45 - 13:45 15:00 17:30
Maximum _ 37,6 C 82 % 1022,3 hPa 3,1 l/m 15,4 km/h
W-NW
- 24,9 C 37,5 C 48,3 km/h
W
Durchschnitt _ 24,4 C 66 % 1014,1 hPa #8,1 l/m 1,4 km/h N-NW 17,2 C 24,3 C 6,1 km/h